sensor_id;sensor_type;location;lat;lon;timestamp;P1;durP1;ratioP1;P2;durP2;ratioP2
52104;SDS011;38103;42.776;23.112;2023-04-03T00:01:13;7.00;;;2.30;;
52104;SDS011;38103;42.776;23.112;2023-04-03T00:03:39;6.63;;;2.20;;
52104;SDS011;38103;42.776;23.112;2023-04-03T00:06:06;6.43;;;2.28;;
52104;SDS011;38103;42.776;23.112;2023-04-03T00:08:33;5.82;;;2.20;;
52104;SDS011;38103;42.776;23.112;2023-04-03T00:11:00;8.15;;;2.70;;
52104;SDS011;38103;42.776;23.112;2023-04-03T00:13:26;6.95;;;2.25;;
52104;SDS011;38103;42.776;23.112;2023-04-03T00:15:51;6.88;;;2.50;;
52104;SDS011;38103;42.776;23.112;2023-04-03T00:18:17;8.18;;;2.40;;
52104;SDS011;38103;42.776;23.112;2023-04-03T00:20:43;6.43;;;2.20;;
52104;SDS011;38103;42.776;23.112;2023-04-03T00:23:08;6.13;;;2.40;;
52104;SDS011;38103;42.776;23.112;2023-04-03T00:25:34;6.97;;;2.30;;
52104;SDS011;38103;42.776;23.112;2023-04-03T00:28:00;6.72;;;2.50;;
52104;SDS011;38103;42.776;23.112;2023-04-03T00:30:25;7.32;;;2.40;;
52104;SDS011;38103;42.776;23.112;2023-04-03T00:32:51;5.78;;;2.33;;
52104;SDS011;38103;42.776;23.112;2023-04-03T00:35:17;7.97;;;2.85;;
52104;SDS011;38103;42.776;23.112;2023-04-03T00:37:44;9.98;;;2.70;;
52104;SDS011;38103;42.776;23.112;2023-04-03T00:40:10;7.45;;;2.50;;
52104;SDS011;38103;42.776;23.112;2023-04-03T00:42:38;6.78;;;2.42;;
52104;SDS011;38103;42.776;23.112;2023-04-03T00:47:30;7.57;;;2.60;;
52104;SDS011;38103;42.776;23.112;2023-04-03T00:49:56;6.72;;;2.70;;
52104;SDS011;38103;42.776;23.112;2023-04-03T00:52:25;7.53;;;2.53;;
52104;SDS011;38103;42.776;23.112;2023-04-03T00:54:54;7.43;;;2.80;;
52104;SDS011;38103;42.776;23.112;2023-04-03T00:57:25;7.13;;;2.53;;
52104;SDS011;38103;42.776;23.112;2023-04-03T00:59:53;6.82;;;2.70;;
52104;SDS011;38103;42.776;23.112;2023-04-03T01:02:22;6.80;;;2.60;;
52104;SDS011;38103;42.776;23.112;2023-04-03T01:04:48;11.30;;;3.13;;
52104;SDS011;38103;42.776;23.112;2023-04-03T01:07:18;7.20;;;2.67;;
52104;SDS011;38103;42.776;23.112;2023-04-03T01:09:47;6.55;;;2.50;;
52104;SDS011;38103;42.776;23.112;2023-04-03T01:14:50;7.03;;;2.67;;
52104;SDS011;38103;42.776;23.112;2023-04-03T01:17:36;7.45;;;2.80;;
52104;SDS011;38103;42.776;23.112;2023-04-03T01:22:58;7.53;;;3.03;;
52104;SDS011;38103;42.776;23.112;2023-04-03T01:25:44;8.07;;;2.90;;
52104;SDS011;38103;42.776;23.112;2023-04-03T01:28:12;9.23;;;2.60;;
52104;SDS011;38103;42.776;23.112;2023-04-03T01:30:53;8.10;;;2.75;;
52104;SDS011;38103;42.776;23.112;2023-04-03T01:33:25;7.55;;;2.75;;
52104;SDS011;38103;42.776;23.112;2023-04-03T01:35:51;7.70;;;2.90;;
52104;SDS011;38103;42.776;23.112;2023-04-03T01:38:17;8.15;;;2.92;;
52104;SDS011;38103;42.776;23.112;2023-04-03T01:40:42;6.57;;;2.47;;
52104;SDS011;38103;42.776;23.112;2023-04-03T01:43:08;8.68;;;2.72;;
52104;SDS011;38103;42.776;23.112;2023-04-03T01:45:33;9.70;;;3.10;;
52104;SDS011;38103;42.776;23.112;2023-04-03T01:47:59;8.02;;;2.80;;
52104;SDS011;38103;42.776;23.112;2023-04-03T01:50:24;8.50;;;3.00;;
52104;SDS011;38103;42.776;23.112;2023-04-03T01:52:50;8.30;;;2.85;;
52104;SDS011;38103;42.776;23.112;2023-04-03T01:55:15;8.35;;;2.63;;
52104;SDS011;38103;42.776;23.112;2023-04-03T01:57:40;7.80;;;2.65;;
52104;SDS011;38103;42.776;23.112;2023-04-03T02:00:06;7.38;;;2.75;;
52104;SDS011;38103;42.776;23.112;2023-04-03T02:02:32;8.57;;;2.83;;
52104;SDS011;38103;42.776;23.112;2023-04-03T02:04:58;9.55;;;2.83;;
52104;SDS011;38103;42.776;23.112;2023-04-03T02:07:23;8.45;;;2.83;;
52104;SDS011;38103;42.776;23.112;2023-04-03T02:09:49;8.50;;;2.90;;
52104;SDS011;38103;42.776;23.112;2023-04-03T02:12:15;8.15;;;2.83;;
52104;SDS011;38103;42.776;23.112;2023-04-03T02:14:40;8.27;;;2.78;;
52104;SDS011;38103;42.776;23.112;2023-04-03T02:17:06;8.18;;;2.90;;
52104;SDS011;38103;42.776;23.112;2023-04-03T02:19:33;7.65;;;2.70;;
52104;SDS011;38103;42.776;23.112;2023-04-03T02:22:00;7.57;;;2.70;;
52104;SDS011;38103;42.776;23.112;2023-04-03T02:24:26;9.75;;;3.10;;
52104;SDS011;38103;42.776;23.112;2023-04-03T02:26:51;8.50;;;3.20;;
52104;SDS011;38103;42.776;23.112;2023-04-03T02:29:16;7.15;;;2.80;;
52104;SDS011;38103;42.776;23.112;2023-04-03T02:31:42;8.40;;;2.80;;
52104;SDS011;38103;42.776;23.112;2023-04-03T02:34:07;9.27;;;3.13;;
52104;SDS011;38103;42.776;23.112;2023-04-03T02:36:32;7.90;;;2.80;;
52104;SDS011;38103;42.776;23.112;2023-04-03T02:38:58;8.93;;;2.80;;
52104;SDS011;38103;42.776;23.112;2023-04-03T02:41:23;9.68;;;2.83;;
52104;SDS011;38103;42.776;23.112;2023-04-03T02:43:50;7.32;;;2.80;;
52104;SDS011;38103;42.776;23.112;2023-04-03T02:46:15;7.60;;;3.00;;
52104;SDS011;38103;42.776;23.112;2023-04-03T02:48:41;8.05;;;3.13;;
52104;SDS011;38103;42.776;23.112;2023-04-03T02:51:06;7.35;;;2.83;;
52104;SDS011;38103;42.776;23.112;2023-04-03T02:53:32;8.75;;;3.10;;
52104;SDS011;38103;42.776;23.112;2023-04-03T02:55:57;7.40;;;2.60;;
52104;SDS011;38103;42.776;23.112;2023-04-03T02:58:23;7.47;;;2.70;;
52104;SDS011;38103;42.776;23.112;2023-04-03T03:00:48;8.70;;;2.90;;
52104;SDS011;38103;42.776;23.112;2023-04-03T03:03:13;9.07;;;2.85;;
52104;SDS011;38103;42.776;23.112;2023-04-03T03:05:39;7.75;;;2.65;;
52104;SDS011;38103;42.776;23.112;2023-04-03T03:08:05;8.73;;;3.10;;
52104;SDS011;38103;42.776;23.112;2023-04-03T03:10:30;7.68;;;2.80;;
52104;SDS011;38103;42.776;23.112;2023-04-03T03:12:56;8.38;;;2.90;;
52104;SDS011;38103;42.776;23.112;2023-04-03T03:15:21;6.68;;;2.60;;
52104;SDS011;38103;42.776;23.112;2023-04-03T03:17:46;7.80;;;2.83;;
52104;SDS011;38103;42.776;23.112;2023-04-03T03:20:12;8.85;;;3.00;;
52104;SDS011;38103;42.776;23.112;2023-04-03T03:22:40;9.25;;;3.17;;
52104;SDS011;38103;42.776;23.112;2023-04-03T03:25:06;7.90;;;3.00;;
52104;SDS011;38103;42.776;23.112;2023-04-03T03:27:32;6.55;;;2.70;;
52104;SDS011;38103;42.776;23.112;2023-04-03T03:29:57;8.40;;;3.13;;
52104;SDS011;38103;42.776;23.112;2023-04-03T03:32:22;8.35;;;3.08;;
52104;SDS011;38103;42.776;23.112;2023-04-03T03:34:48;8.40;;;3.00;;
52104;SDS011;38103;42.776;23.112;2023-04-03T03:37:13;7.68;;;3.00;;
52104;SDS011;38103;42.776;23.112;2023-04-03T03:39:38;8.88;;;3.35;;
52104;SDS011;38103;42.776;23.112;2023-04-03T03:42:04;9.15;;;3.30;;
52104;SDS011;38103;42.776;23.112;2023-04-03T03:44:29;9.30;;;3.00;;
52104;SDS011;38103;42.776;23.112;2023-04-03T03:46:55;8.95;;;3.33;;
52104;SDS011;38103;42.776;23.112;2023-04-03T03:49:21;7.70;;;3.00;;
52104;SDS011;38103;42.776;23.112;2023-04-03T03:51:46;8.23;;;3.00;;
52104;SDS011;38103;42.776;23.112;2023-04-03T03:54:12;8.07;;;3.13;;
52104;SDS011;38103;42.776;23.112;2023-04-03T03:56:37;8.35;;;3.22;;
52104;SDS011;38103;42.776;23.112;2023-04-03T03:59:03;8.65;;;3.42;;
52104;SDS011;38103;42.776;23.112;2023-04-03T04:01:28;8.70;;;3.10;;
52104;SDS011;38103;42.776;23.112;2023-04-03T04:03:53;8.40;;;3.67;;
52104;SDS011;38103;42.776;23.112;2023-04-03T04:06:19;10.10;;;3.92;;
52104;SDS011;38103;42.776;23.112;2023-04-03T04:08:46;8.65;;;3.40;;
52104;SDS011;38103;42.776;23.112;2023-04-03T04:11:11;9.05;;;3.70;;
52104;SDS011;38103;42.776;23.112;2023-04-03T04:13:37;11.52;;;5.57;;
52104;SDS011;38103;42.776;23.112;2023-04-03T04:16:02;12.30;;;5.82;;
52104;SDS011;38103;42.776;23.112;2023-04-03T04:18:27;11.20;;;5.55;;
52104;SDS011;38103;42.776;23.112;2023-04-03T04:20:53;11.25;;;5.00;;
52104;SDS011;38103;42.776;23.112;2023-04-03T04:23:18;12.65;;;4.63;;
52104;SDS011;38103;42.776;23.112;2023-04-03T04:25:47;10.48;;;4.22;;
52104;SDS011;38103;42.776;23.112;2023-04-03T04:28:14;9.90;;;4.55;;
52104;SDS011;38103;42.776;23.112;2023-04-03T04:30:40;10.10;;;4.80;;
52104;SDS011;38103;42.776;23.112;2023-04-03T04:33:05;12.50;;;4.68;;
52104;SDS011;38103;42.776;23.112;2023-04-03T04:35:31;10.18;;;4.70;;
52104;SDS011;38103;42.776;23.112;2023-04-03T04:37:57;10.23;;;4.22;;
52104;SDS011;38103;42.776;23.112;2023-04-03T04:40:22;11.10;;;3.75;;
52104;SDS011;38103;42.776;23.112;2023-04-03T04:42:48;10.02;;;4.10;;
52104;SDS011;38103;42.776;23.112;2023-04-03T04:45:13;9.77;;;3.90;;
52104;SDS011;38103;42.776;23.112;2023-04-03T04:47:40;9.63;;;3.83;;
52104;SDS011;38103;42.776;23.112;2023-04-03T04:50:05;9.30;;;3.95;;
52104;SDS011;38103;42.776;23.112;2023-04-03T04:52:31;8.70;;;4.10;;
52104;SDS011;38103;42.776;23.112;2023-04-03T04:54:56;10.15;;;4.53;;
52104;SDS011;38103;42.776;23.112;2023-04-03T04:57:22;12.73;;;3.88;;
52104;SDS011;38103;42.776;23.112;2023-04-03T04:59:47;11.00;;;4.35;;
52104;SDS011;38103;42.776;23.112;2023-04-03T05:02:13;11.32;;;4.20;;
52104;SDS011;38103;42.776;23.112;2023-04-03T05:04:38;11.73;;;4.38;;
52104;SDS011;38103;42.776;23.112;2023-04-03T05:07:03;12.07;;;4.18;;
52104;SDS011;38103;42.776;23.112;2023-04-03T05:09:29;9.20;;;3.72;;
52104;SDS011;38103;42.776;23.112;2023-04-03T05:11:54;9.93;;;3.80;;
52104;SDS011;38103;42.776;23.112;2023-04-03T05:14:21;9.82;;;4.00;;
52104;SDS011;38103;42.776;23.112;2023-04-03T05:16:46;9.65;;;3.97;;
52104;SDS011;38103;42.776;23.112;2023-04-03T05:19:12;9.27;;;3.90;;
52104;SDS011;38103;42.776;23.112;2023-04-03T05:21:37;10.23;;;4.18;;
52104;SDS011;38103;42.776;23.112;2023-04-03T05:24:03;8.75;;;3.70;;
52104;SDS011;38103;42.776;23.112;2023-04-03T05:26:29;9.70;;;4.10;;
52104;SDS011;38103;42.776;23.112;2023-04-03T05:28:55;10.10;;;4.10;;
52104;SDS011;38103;42.776;23.112;2023-04-03T05:31:21;10.75;;;4.35;;
52104;SDS011;38103;42.776;23.112;2023-04-03T05:33:46;9.10;;;3.90;;
52104;SDS011;38103;42.776;23.112;2023-04-03T05:36:12;11.02;;;4.57;;
52104;SDS011;38103;42.776;23.112;2023-04-03T05:38:37;10.15;;;4.50;;
52104;SDS011;38103;42.776;23.112;2023-04-03T05:41:03;11.55;;;5.05;;
52104;SDS011;38103;42.776;23.112;2023-04-03T05:43:29;12.30;;;5.00;;
52104;SDS011;38103;42.776;23.112;2023-04-03T05:45:55;12.45;;;6.75;;
52104;SDS011;38103;42.776;23.112;2023-04-03T05:48:20;10.48;;;4.97;;
52104;SDS011;38103;42.776;23.112;2023-04-03T05:50:46;11.20;;;5.43;;
52104;SDS011;38103;42.776;23.112;2023-04-03T05:53:18;11.20;;;5.20;;
52104;SDS011;38103;42.776;23.112;2023-04-03T05:55:47;14.73;;;5.68;;
52104;SDS011;38103;42.776;23.112;2023-04-03T05:58:13;14.00;;;6.07;;
52104;SDS011;38103;42.776;23.112;2023-04-03T06:00:38;15.57;;;6.95;;
52104;SDS011;38103;42.776;23.112;2023-04-03T06:03:05;20.77;;;9.13;;
52104;SDS011;38103;42.776;23.112;2023-04-03T06:05:31;15.85;;;7.72;;
52104;SDS011;38103;42.776;23.112;2023-04-03T06:07:56;14.25;;;6.63;;
52104;SDS011;38103;42.776;23.112;2023-04-03T06:10:22;12.38;;;5.68;;
52104;SDS011;38103;42.776;23.112;2023-04-03T06:12:48;10.98;;;4.25;;
52104;SDS011;38103;42.776;23.112;2023-04-03T06:15:13;12.18;;;3.65;;
52104;SDS011;38103;42.776;23.112;2023-04-03T06:17:39;9.07;;;3.60;;
52104;SDS011;38103;42.776;23.112;2023-04-03T06:20:05;9.88;;;3.70;;
52104;SDS011;38103;42.776;23.112;2023-04-03T06:22:31;9.15;;;3.38;;
52104;SDS011;38103;42.776;23.112;2023-04-03T06:24:57;9.18;;;3.40;;
52104;SDS011;38103;42.776;23.112;2023-04-03T06:27:22;11.57;;;3.97;;
52104;SDS011;38103;42.776;23.112;2023-04-03T06:29:48;8.80;;;3.35;;
52104;SDS011;38103;42.776;23.112;2023-04-03T06:32:15;8.50;;;3.30;;
52104;SDS011;38103;42.776;23.112;2023-04-03T06:34:41;9.90;;;3.42;;
52104;SDS011;38103;42.776;23.112;2023-04-03T06:37:20;9.65;;;3.28;;
52104;SDS011;38103;42.776;23.112;2023-04-03T06:39:47;8.63;;;3.30;;
52104;SDS011;38103;42.776;23.112;2023-04-03T06:42:13;9.13;;;3.38;;
52104;SDS011;38103;42.776;23.112;2023-04-03T06:44:38;9.25;;;3.60;;
52104;SDS011;38103;42.776;23.112;2023-04-03T06:47:04;9.35;;;3.42;;
52104;SDS011;38103;42.776;23.112;2023-04-03T06:49:30;9.65;;;3.38;;
52104;SDS011;38103;42.776;23.112;2023-04-03T06:51:55;8.90;;;3.58;;
52104;SDS011;38103;42.776;23.112;2023-04-03T06:54:21;9.98;;;3.75;;
52104;SDS011;38103;42.776;23.112;2023-04-03T06:56:46;9.52;;;3.63;;
52104;SDS011;38103;42.776;23.112;2023-04-03T06:59:12;9.13;;;3.13;;
52104;SDS011;38103;42.776;23.112;2023-04-03T07:01:38;9.43;;;3.70;;
52104;SDS011;38103;42.776;23.112;2023-04-03T07:04:04;10.35;;;3.92;;
52104;SDS011;38103;42.776;23.112;2023-04-03T07:06:30;9.48;;;3.28;;
52104;SDS011;38103;42.776;23.112;2023-04-03T07:08:57;9.32;;;3.30;;
52104;SDS011;38103;42.776;23.112;2023-04-03T07:11:22;13.15;;;3.45;;
52104;SDS011;38103;42.776;23.112;2023-04-03T07:13:48;11.70;;;3.67;;
52104;SDS011;38103;42.776;23.112;2023-04-03T07:16:14;10.45;;;3.67;;
52104;SDS011;38103;42.776;23.112;2023-04-03T07:18:40;9.70;;;3.50;;
52104;SDS011;38103;42.776;23.112;2023-04-03T07:21:06;12.68;;;3.67;;
52104;SDS011;38103;42.776;23.112;2023-04-03T07:23:31;9.05;;;3.58;;
52104;SDS011;38103;42.776;23.112;2023-04-03T07:25:57;9.27;;;3.20;;
52104;SDS011;38103;42.776;23.112;2023-04-03T07:28:22;8.23;;;3.20;;
52104;SDS011;38103;42.776;23.112;2023-04-03T07:30:52;9.15;;;3.33;;
52104;SDS011;38103;42.776;23.112;2023-04-03T07:33:33;10.05;;;3.60;;
52104;SDS011;38103;42.776;23.112;2023-04-03T07:36:00;9.25;;;3.42;;
52104;SDS011;38103;42.776;23.112;2023-04-03T07:38:25;9.73;;;4.63;;
52104;SDS011;38103;42.776;23.112;2023-04-03T07:40:51;12.48;;;4.28;;
52104;SDS011;38103;42.776;23.112;2023-04-03T07:43:18;12.90;;;4.43;;
52104;SDS011;38103;42.776;23.112;2023-04-03T07:45:45;11.63;;;4.28;;
52104;SDS011;38103;42.776;23.112;2023-04-03T07:48:12;11.25;;;4.05;;
52104;SDS011;38103;42.776;23.112;2023-04-03T07:50:41;11.20;;;4.30;;
52104;SDS011;38103;42.776;23.112;2023-04-03T07:53:07;9.13;;;3.97;;
52104;SDS011;38103;42.776;23.112;2023-04-03T07:55:33;9.73;;;3.75;;
52104;SDS011;38103;42.776;23.112;2023-04-03T07:57:59;11.50;;;3.80;;
52104;SDS011;38103;42.776;23.112;2023-04-03T08:00:25;12.43;;;3.90;;
52104;SDS011;38103;42.776;23.112;2023-04-03T08:02:50;9.40;;;3.67;;
52104;SDS011;38103;42.776;23.112;2023-04-03T08:05:19;9.05;;;3.47;;
52104;SDS011;38103;42.776;23.112;2023-04-03T08:07:46;10.68;;;3.50;;
52104;SDS011;38103;42.776;23.112;2023-04-03T08:10:11;9.52;;;4.03;;
52104;SDS011;38103;42.776;23.112;2023-04-03T08:12:37;10.82;;;4.00;;
52104;SDS011;38103;42.776;23.112;2023-04-03T08:15:03;10.38;;;3.80;;
52104;SDS011;38103;42.776;23.112;2023-04-03T08:17:29;12.57;;;4.38;;
52104;SDS011;38103;42.776;23.112;2023-04-03T08:19:54;12.85;;;3.95;;
52104;SDS011;38103;42.776;23.112;2023-04-03T08:22:20;10.65;;;3.90;;
52104;SDS011;38103;42.776;23.112;2023-04-03T08:24:45;11.77;;;4.20;;
52104;SDS011;38103;42.776;23.112;2023-04-03T08:27:11;11.07;;;4.30;;
52104;SDS011;38103;42.776;23.112;2023-04-03T08:29:36;9.75;;;4.07;;
52104;SDS011;38103;42.776;23.112;2023-04-03T08:32:02;13.77;;;4.10;;
52104;SDS011;38103;42.776;23.112;2023-04-03T08:34:29;11.57;;;4.13;;
52104;SDS011;38103;42.776;23.112;2023-04-03T08:36:54;10.73;;;3.78;;
52104;SDS011;38103;42.776;23.112;2023-04-03T08:39:20;10.40;;;4.45;;
52104;SDS011;38103;42.776;23.112;2023-04-03T08:41:45;11.18;;;4.20;;
52104;SDS011;38103;42.776;23.112;2023-04-03T08:47:11;10.52;;;3.83;;
52104;SDS011;38103;42.776;23.112;2023-04-03T08:52:18;12.25;;;6.15;;
52104;SDS011;38103;42.776;23.112;2023-04-03T08:54:57;9.35;;;3.60;;
52104;SDS011;38103;42.776;23.112;2023-04-03T08:57:44;10.63;;;4.30;;
52104;SDS011;38103;42.776;23.112;2023-04-03T09:02:46;9.40;;;3.30;;
52104;SDS011;38103;42.776;23.112;2023-04-03T09:05:18;10.25;;;3.90;;
52104;SDS011;38103;42.776;23.112;2023-04-03T09:07:46;10.63;;;4.32;;
52104;SDS011;38103;42.776;23.112;2023-04-03T09:10:22;8.85;;;3.47;;
52104;SDS011;38103;42.776;23.112;2023-04-03T09:13:39;11.10;;;3.77;;
52104;SDS011;38103;42.776;23.112;2023-04-03T09:15:37;9.48;;;3.78;;
52104;SDS011;38103;42.776;23.112;2023-04-03T09:18:13;14.77;;;3.88;;
52104;SDS011;38103;42.776;23.112;2023-04-03T09:20:49;8.80;;;3.35;;
52104;SDS011;38103;42.776;23.112;2023-04-03T09:23:33;21.20;;;3.88;;
52104;SDS011;38103;42.776;23.112;2023-04-03T09:26:06;15.77;;;6.28;;
52104;SDS011;38103;42.776;23.112;2023-04-03T09:28:38;11.73;;;3.97;;
52104;SDS011;38103;42.776;23.112;2023-04-03T09:31:23;10.43;;;3.90;;
52104;SDS011;38103;42.776;23.112;2023-04-03T09:33:56;11.10;;;4.45;;
52104;SDS011;38103;42.776;23.112;2023-04-03T09:39:10;14.93;;;4.82;;
52104;SDS011;38103;42.776;23.112;2023-04-03T09:41:39;10.60;;;4.70;;
52104;SDS011;38103;42.776;23.112;2023-04-03T09:44:17;11.60;;;4.60;;
52104;SDS011;38103;42.776;23.112;2023-04-03T09:46:46;12.15;;;4.93;;
52104;SDS011;38103;42.776;23.112;2023-04-03T09:49:12;11.80;;;5.18;;
52104;SDS011;38103;42.776;23.112;2023-04-03T09:51:38;10.95;;;5.50;;
52104;SDS011;38103;42.776;23.112;2023-04-03T09:56:51;15.82;;;4.97;;
52104;SDS011;38103;42.776;23.112;2023-04-03T09:59:20;14.15;;;5.38;;
52104;SDS011;38103;42.776;23.112;2023-04-03T10:04:59;14.23;;;5.07;;
52104;SDS011;38103;42.776;23.112;2023-04-03T10:07:26;13.63;;;5.70;;
52104;SDS011;38103;42.776;23.112;2023-04-03T10:09:55;15.88;;;6.32;;
52104;SDS011;38103;42.776;23.112;2023-04-03T10:12:23;16.15;;;6.70;;
52104;SDS011;38103;42.776;23.112;2023-04-03T10:15:01;12.35;;;6.35;;
52104;SDS011;38103;42.776;23.112;2023-04-03T10:17:39;16.35;;;6.97;;
52104;SDS011;38103;42.776;23.112;2023-04-03T10:28:17;13.13;;;6.90;;
52104;SDS011;38103;42.776;23.112;2023-04-03T10:30:56;13.20;;;5.90;;
52104;SDS011;38103;42.776;23.112;2023-04-03T10:33:44;11.77;;;5.88;;
52104;SDS011;38103;42.776;23.112;2023-04-03T10:39:26;12.25;;;6.30;;
52104;SDS011;38103;42.776;23.112;2023-04-03T10:47:05;13.45;;;6.40;;
52104;SDS011;38103;42.776;23.112;2023-04-03T10:52:22;14.60;;;5.90;;
52104;SDS011;38103;42.776;23.112;2023-04-03T10:57:40;13.60;;;5.80;;
52104;SDS011;38103;42.776;23.112;2023-04-03T11:00:19;14.13;;;5.85;;
52104;SDS011;38103;42.776;23.112;2023-04-03T11:02:51;11.70;;;5.50;;
52104;SDS011;38103;42.776;23.112;2023-04-03T11:05:44;15.95;;;7.22;;
52104;SDS011;38103;42.776;23.112;2023-04-03T11:08:27;14.05;;;7.00;;
52104;SDS011;38103;42.776;23.112;2023-04-03T11:11:13;13.23;;;5.68;;
52104;SDS011;38103;42.776;23.112;2023-04-03T11:13:48;11.82;;;5.47;;
52104;SDS011;38103;42.776;23.112;2023-04-03T11:16:29;13.07;;;5.15;;
52104;SDS011;38103;42.776;23.112;2023-04-03T11:19:05;11.38;;;4.90;;
52104;SDS011;38103;42.776;23.112;2023-04-03T11:21:44;17.50;;;6.32;;
52104;SDS011;38103;42.776;23.112;2023-04-03T11:24:20;14.70;;;5.72;;
52104;SDS011;38103;42.776;23.112;2023-04-03T11:26:50;13.60;;;5.65;;
52104;SDS011;38103;42.776;23.112;2023-04-03T11:29:22;13.30;;;5.60;;
52104;SDS011;38103;42.776;23.112;2023-04-03T11:32:01;12.68;;;4.53;;
52104;SDS011;38103;42.776;23.112;2023-04-03T11:34:34;13.02;;;4.60;;
52104;SDS011;38103;42.776;23.112;2023-04-03T11:37:23;12.20;;;4.40;;
52104;SDS011;38103;42.776;23.112;2023-04-03T11:39:58;13.52;;;4.82;;
52104;SDS011;38103;42.776;23.112;2023-04-03T11:42:46;11.35;;;4.47;;
52104;SDS011;38103;42.776;23.112;2023-04-03T11:47:55;11.27;;;4.63;;
52104;SDS011;38103;42.776;23.112;2023-04-03T11:50:39;11.38;;;4.80;;
52104;SDS011;38103;42.776;23.112;2023-04-03T12:05:50;11.38;;;4.60;;
52104;SDS011;38103;42.776;23.112;2023-04-03T12:13:38;13.32;;;4.95;;
52104;SDS011;38103;42.776;23.112;2023-04-03T12:37:34;13.45;;;6.47;;
52104;SDS011;38103;42.776;23.112;2023-04-03T12:45:29;345.10;;;26.45;;
52104;SDS011;38103;42.776;23.112;2023-04-03T12:48:06;11.00;;;5.10;;
52104;SDS011;38103;42.776;23.112;2023-04-03T12:50:40;136.02;;;16.33;;
52104;SDS011;38103;42.776;23.112;2023-04-03T12:55:54;11.00;;;5.32;;
52104;SDS011;38103;42.776;23.112;2023-04-03T12:58:27;49.60;;;7.13;;
52104;SDS011;38103;42.776;23.112;2023-04-03T13:03:27;16.05;;;7.20;;
52104;SDS011;38103;42.776;23.112;2023-04-03T13:05:54;45.10;;;41.25;;
52104;SDS011;38103;42.776;23.112;2023-04-03T13:08:24;17.85;;;8.60;;
52104;SDS011;38103;42.776;23.112;2023-04-03T13:10:58;17.17;;;8.05;;
52104;SDS011;38103;42.776;23.112;2023-04-03T13:13:35;15.45;;;8.75;;
52104;SDS011;38103;42.776;23.112;2023-04-03T13:16:07;15.20;;;8.13;;
52104;SDS011;38103;42.776;23.112;2023-04-03T13:18:35;15.57;;;9.25;;
52104;SDS011;38103;42.776;23.112;2023-04-03T13:23:38;49.65;;;22.08;;
52104;SDS011;38103;42.776;23.112;2023-04-03T13:26:07;21.27;;;14.80;;
52104;SDS011;38103;42.776;23.112;2023-04-03T13:28:33;168.20;;;32.67;;
52104;SDS011;38103;42.776;23.112;2023-04-03T13:33:53;15.02;;;7.85;;
52104;SDS011;38103;42.776;23.112;2023-04-03T13:36:24;17.05;;;8.20;;
52104;SDS011;38103;42.776;23.112;2023-04-03T13:38:58;17.13;;;8.32;;
52104;SDS011;38103;42.776;23.112;2023-04-03T13:41:47;14.60;;;7.70;;
52104;SDS011;38103;42.776;23.112;2023-04-03T13:44:26;12.90;;;7.07;;
52104;SDS011;38103;42.776;23.112;2023-04-03T13:46:53;14.05;;;5.88;;
52104;SDS011;38103;42.776;23.112;2023-04-03T13:49:40;12.55;;;5.82;;
52104;SDS011;38103;42.776;23.112;2023-04-03T13:54:53;11.13;;;4.72;;
52104;SDS011;38103;42.776;23.112;2023-04-03T13:57:21;10.05;;;4.30;;
52104;SDS011;38103;42.776;23.112;2023-04-03T13:59:48;10.10;;;4.68;;
52104;SDS011;38103;42.776;23.112;2023-04-03T14:02:38;10.55;;;4.18;;
52104;SDS011;38103;42.776;23.112;2023-04-03T14:05:04;10.13;;;4.65;;
52104;SDS011;38103;42.776;23.112;2023-04-03T14:07:33;10.70;;;5.22;;
52104;SDS011;38103;42.776;23.112;2023-04-03T14:09:58;10.45;;;5.13;;
52104;SDS011;38103;42.776;23.112;2023-04-03T14:12:26;12.00;;;5.43;;
52104;SDS011;38103;42.776;23.112;2023-04-03T14:14:56;13.23;;;5.75;;
52104;SDS011;38103;42.776;23.112;2023-04-03T14:17:23;12.02;;;6.35;;
52104;SDS011;38103;42.776;23.112;2023-04-03T14:19:51;15.45;;;7.07;;
52104;SDS011;38103;42.776;23.112;2023-04-03T14:22:22;13.73;;;7.40;;
52104;SDS011;38103;42.776;23.112;2023-04-03T14:24:56;15.65;;;7.72;;
52104;SDS011;38103;42.776;23.112;2023-04-03T14:27:24;16.13;;;7.80;;
52104;SDS011;38103;42.776;23.112;2023-04-03T14:29:51;13.30;;;7.20;;
52104;SDS011;38103;42.776;23.112;2023-04-03T14:32:18;12.02;;;6.78;;
52104;SDS011;38103;42.776;23.112;2023-04-03T14:34:46;14.02;;;7.15;;
52104;SDS011;38103;42.776;23.112;2023-04-03T14:37:13;13.95;;;7.53;;
52104;SDS011;38103;42.776;23.112;2023-04-03T14:39:42;12.90;;;7.22;;
52104;SDS011;38103;42.776;23.112;2023-04-03T14:42:15;15.75;;;9.05;;
52104;SDS011;38103;42.776;23.112;2023-04-03T14:44:44;17.98;;;8.40;;
52104;SDS011;38103;42.776;23.112;2023-04-03T14:47:13;15.23;;;8.27;;
52104;SDS011;38103;42.776;23.112;2023-04-03T14:49:42;18.70;;;9.05;;
52104;SDS011;38103;42.776;23.112;2023-04-03T14:54:50;14.93;;;8.50;;
52104;SDS011;38103;42.776;23.112;2023-04-03T14:57:16;16.13;;;9.10;;
52104;SDS011;38103;42.776;23.112;2023-04-03T14:59:43;15.63;;;8.63;;
52104;SDS011;38103;42.776;23.112;2023-04-03T15:04:50;17.13;;;8.52;;
52104;SDS011;38103;42.776;23.112;2023-04-03T15:07:15;17.30;;;8.35;;
52104;SDS011;38103;42.776;23.112;2023-04-03T15:09:41;16.33;;;9.55;;
52104;SDS011;38103;42.776;23.112;2023-04-03T15:12:08;15.07;;;8.45;;
52104;SDS011;38103;42.776;23.112;2023-04-03T15:14:34;15.23;;;8.10;;
52104;SDS011;38103;42.776;23.112;2023-04-03T15:16:59;14.15;;;9.00;;
52104;SDS011;38103;42.776;23.112;2023-04-03T15:19:25;15.82;;;9.57;;
52104;SDS011;38103;42.776;23.112;2023-04-03T15:21:50;15.60;;;9.20;;
52104;SDS011;38103;42.776;23.112;2023-04-03T15:24:16;15.35;;;8.93;;
52104;SDS011;38103;42.776;23.112;2023-04-03T15:26:41;15.45;;;9.55;;
52104;SDS011;38103;42.776;23.112;2023-04-03T15:29:07;18.00;;;10.57;;
52104;SDS011;38103;42.776;23.112;2023-04-03T15:31:32;17.98;;;10.80;;
52104;SDS011;38103;42.776;23.112;2023-04-03T15:33:58;17.58;;;9.70;;
52104;SDS011;38103;42.776;23.112;2023-04-03T15:36:24;19.17;;;10.27;;
52104;SDS011;38103;42.776;23.112;2023-04-03T15:38:49;17.13;;;11.27;;
52104;SDS011;38103;42.776;23.112;2023-04-03T15:41:14;19.65;;;12.77;;
52104;SDS011;38103;42.776;23.112;2023-04-03T15:43:40;22.15;;;13.98;;
52104;SDS011;38103;42.776;23.112;2023-04-03T15:46:05;24.25;;;15.77;;
52104;SDS011;38103;42.776;23.112;2023-04-03T15:48:31;24.05;;;15.52;;
52104;SDS011;38103;42.776;23.112;2023-04-03T15:50:56;28.00;;;17.75;;
52104;SDS011;38103;42.776;23.112;2023-04-03T15:53:22;26.20;;;16.58;;
52104;SDS011;38103;42.776;23.112;2023-04-03T15:55:47;26.73;;;16.58;;
52104;SDS011;38103;42.776;23.112;2023-04-03T15:58:13;27.95;;;17.20;;
52104;SDS011;38103;42.776;23.112;2023-04-03T16:00:38;31.92;;;20.63;;
52104;SDS011;38103;42.776;23.112;2023-04-03T16:03:05;35.88;;;23.58;;
52104;SDS011;38103;42.776;23.112;2023-04-03T16:05:35;40.65;;;26.58;;
52104;SDS011;38103;42.776;23.112;2023-04-03T16:08:02;41.65;;;26.08;;
52104;SDS011;38103;42.776;23.112;2023-04-03T16:10:28;38.60;;;27.15;;
52104;SDS011;38103;42.776;23.112;2023-04-03T16:12:55;39.97;;;25.95;;
52104;SDS011;38103;42.776;23.112;2023-04-03T16:15:20;40.35;;;25.63;;
52104;SDS011;38103;42.776;23.112;2023-04-03T16:17:46;37.72;;;23.48;;
52104;SDS011;38103;42.776;23.112;2023-04-03T16:20:13;35.63;;;23.65;;
52104;SDS011;38103;42.776;23.112;2023-04-03T16:22:39;31.27;;;20.17;;
52104;SDS011;38103;42.776;23.112;2023-04-03T16:25:06;28.80;;;17.88;;